Accueil
METAR-TAF:

METAR-TAF

Aéroports :

Bornemouth, Angleterre

Aéroport de Bournemouth

latitude: 50-47N, longitude: 001-50W, altitude: 11 m

Observation

Le bulletin a été fait il y a 19 minutes, à 15:20 UTC
Vent 17 kt de ouest/sud-ouest
Température 21°C
Humidité 60%
Pression 1018 hPa
Visibilité 10 km ou plus
Nuages épars à une hauteur de 3100 ft
Nuages fragmentés à une hauteur de 4200 ft

METAR: EGHH 231520Z 25017KT 9999 SCT031 BKN042 21/13 Q1018

Heure: 16:39 (15:39 UTC)

Prévision

Le bulletin a été fait il y a 1 heure et 46 minutes, à 13:53 UTC
Prévision valable du 23 à 15 UTC au 23 à 24 UTC
Vent 12 kt de ouest/sud-ouest
Visibilité 10 km ou plus
Nuages épars à une hauteur de 2500 ft

TAF: EGHH 231353Z 2315/2324 25012KT 9999 SCT025

Observations et prévisions météorologiques de plus de 4000 aéroports (messages METAR et TAF).

Les stations disponibles sont représentées par des disques jaunes et rouges sur la carte.

Passer la souris dessus pour voir le nom de la station.

Cliquer dessus pour voir les observations et prévisions météorologiques.

Pour changer de carte: cliquez sur les boutons verts avec une croix noire pour zoomer, sur le bouton vert avec un tiret pour effectuer un zoom arrière, ou sur les flèches vertes pour les cartes adjacentes.


METAR-TAF: